sensor_id;sensor_type;location;lat;lon;timestamp;pressure;altitude;pressure_sealevel;temperature
6550;BMP280;15142;48.888;9.134;2023-03-01T00:02:11;98828.31;;;0.09
6550;BMP280;15142;48.888;9.134;2023-03-01T00:04:37;98828.31;;;0.09
6550;BMP280;15142;48.888;9.134;2023-03-01T00:07:04;98824.84;;;0.10
6550;BMP280;15142;48.888;9.134;2023-03-01T00:09:32;98821.94;;;0.06
6550;BMP280;15142;48.888;9.134;2023-03-01T00:11:59;98816.28;;;-0.02
6550;BMP280;15142;48.888;9.134;2023-03-01T00:14:25;98823.44;;;0.01
6550;BMP280;15142;48.888;9.134;2023-03-01T00:16:52;98823.97;;;-0.03
6550;BMP280;15142;48.888;9.134;2023-03-01T00:19:20;98824.41;;;0.00
6550;BMP280;15142;48.888;9.134;2023-03-01T00:21:48;98818.34;;;-0.05
6550;BMP280;15142;48.888;9.134;2023-03-01T00:24:15;98816.38;;;-0.10
6550;BMP280;15142;48.888;9.134;2023-03-01T00:26:42;98824.63;;;-0.16
6550;BMP280;15142;48.888;9.134;2023-03-01T00:29:08;98827.72;;;-0.14
6550;BMP280;15142;48.888;9.134;2023-03-01T00:31:35;98831.34;;;-0.16
6550;BMP280;15142;48.888;9.134;2023-03-01T00:34:03;98830.59;;;-0.17
6550;BMP280;15142;48.888;9.134;2023-03-01T00:36:33;98835.97;;;-0.20
6550;BMP280;15142;48.888;9.134;2023-03-01T00:39:00;98829.56;;;-0.22
6550;BMP280;15142;48.888;9.134;2023-03-01T00:41:28;98840.00;;;-0.19
6550;BMP280;15142;48.888;9.134;2023-03-01T00:43:54;98839.25;;;-0.19
6550;BMP280;15142;48.888;9.134;2023-03-01T00:46:23;98836.94;;;-0.35
6550;BMP280;15142;48.888;9.134;2023-03-01T00:48:51;98828.47;;;-0.48
6550;BMP280;15142;48.888;9.134;2023-03-01T00:51:19;98827.75;;;-0.63
6550;BMP280;15142;48.888;9.134;2023-03-01T00:53:50;98827.84;;;-0.71
6550;BMP280;15142;48.888;9.134;2023-03-01T00:56:18;98828.38;;;-0.75
6550;BMP280;15142;48.888;9.134;2023-03-01T00:58:45;98826.56;;;-0.81
6550;BMP280;15142;48.888;9.134;2023-03-01T01:01:13;98828.03;;;-0.87
6550;BMP280;15142;48.888;9.134;2023-03-01T01:03:45;98836.84;;;-0.91
6550;BMP280;15142;48.888;9.134;2023-03-01T01:06:19;98835.31;;;-0.92
6550;BMP280;15142;48.888;9.134;2023-03-01T01:08:48;98828.41;;;-0.90
6550;BMP280;15142;48.888;9.134;2023-03-01T01:11:16;98824.31;;;-0.91
6550;BMP280;15142;48.888;9.134;2023-03-01T01:13:44;98828.81;;;-0.86
6550;BMP280;15142;48.888;9.134;2023-03-01T01:16:11;98823.78;;;-0.86
6550;BMP280;15142;48.888;9.134;2023-03-01T01:18:38;98832.53;;;-0.97
6550;BMP280;15142;48.888;9.134;2023-03-01T01:21:09;98832.78;;;-1.06
6550;BMP280;15142;48.888;9.134;2023-03-01T01:23:37;98824.84;;;-1.09
6550;BMP280;15142;48.888;9.134;2023-03-01T01:26:06;98821.81;;;-1.05
6550;BMP280;15142;48.888;9.134;2023-03-01T01:28:33;98822.69;;;-1.12
6550;BMP280;15142;48.888;9.134;2023-03-01T01:30:59;98828.13;;;-1.23
6550;BMP280;15142;48.888;9.134;2023-03-01T01:33:26;98812.41;;;-1.32
6550;BMP280;15142;48.888;9.134;2023-03-01T01:35:53;98804.59;;;-1.37
6550;BMP280;15142;48.888;9.134;2023-03-01T01:38:19;98804.16;;;-1.40
6550;BMP280;15142;48.888;9.134;2023-03-01T01:40:48;98793.75;;;-1.44
6550;BMP280;15142;48.888;9.134;2023-03-01T01:43:20;98791.66;;;-1.40
6550;BMP280;15142;48.888;9.134;2023-03-01T01:45:48;98792.25;;;-1.38
6550;BMP280;15142;48.888;9.134;2023-03-01T01:48:19;98795.44;;;-1.44
6550;BMP280;15142;48.888;9.134;2023-03-01T01:50:51;98793.13;;;-1.46
6550;BMP280;15142;48.888;9.134;2023-03-01T01:53:20;98792.94;;;-1.44
6550;BMP280;15142;48.888;9.134;2023-03-01T01:55:50;98793.31;;;-1.47
6550;BMP280;15142;48.888;9.134;2023-03-01T01:58:20;98787.41;;;-1.54
6550;BMP280;15142;48.888;9.134;2023-03-01T02:00:48;98778.78;;;-1.66
6550;BMP280;15142;48.888;9.134;2023-03-01T02:03:18;98780.84;;;-1.69
6550;BMP280;15142;48.888;9.134;2023-03-01T02:05:50;98781.78;;;-1.70
6550;BMP280;15142;48.888;9.134;2023-03-01T02:08:19;98775.25;;;-1.71
6550;BMP280;15142;48.888;9.134;2023-03-01T02:10:46;98772.38;;;-1.68
6550;BMP280;15142;48.888;9.134;2023-03-01T02:13:14;98772.06;;;-1.65
6550;BMP280;15142;48.888;9.134;2023-03-01T02:15:43;98769.28;;;-1.56
6550;BMP280;15142;48.888;9.134;2023-03-01T02:18:12;98772.69;;;-1.49
6550;BMP280;15142;48.888;9.134;2023-03-01T02:20:44;98761.19;;;-1.58
6550;BMP280;15142;48.888;9.134;2023-03-01T02:23:15;98760.50;;;-1.66
6550;BMP280;15142;48.888;9.134;2023-03-01T02:25:47;98764.03;;;-1.61
6550;BMP280;15142;48.888;9.134;2023-03-01T02:28:29;98755.50;;;-1.66
6550;BMP280;15142;48.888;9.134;2023-03-01T02:30:56;98743.75;;;-1.66
6550;BMP280;15142;48.888;9.134;2023-03-01T02:33:41;98754.28;;;-1.56
6550;BMP280;15142;48.888;9.134;2023-03-01T02:36:10;98747.13;;;-1.45
6550;BMP280;15142;48.888;9.134;2023-03-01T02:38:39;98739.97;;;-1.33
6550;BMP280;15142;48.888;9.134;2023-03-01T02:41:07;98739.03;;;-1.32
6550;BMP280;15142;48.888;9.134;2023-03-01T02:43:35;98737.41;;;-1.25
6550;BMP280;15142;48.888;9.134;2023-03-01T02:46:14;98730.91;;;-1.20
6550;BMP280;15142;48.888;9.134;2023-03-01T02:48:43;98731.97;;;-1.14
6550;BMP280;15142;48.888;9.134;2023-03-01T02:51:17;98726.19;;;-1.15
6550;BMP280;15142;48.888;9.134;2023-03-01T02:53:53;98729.63;;;-1.16
6550;BMP280;15142;48.888;9.134;2023-03-01T02:56:23;98728.16;;;-1.10
6550;BMP280;15142;48.888;9.134;2023-03-01T02:58:52;98717.09;;;-1.16
6550;BMP280;15142;48.888;9.134;2023-03-01T03:01:19;98719.72;;;-1.09
6550;BMP280;15142;48.888;9.134;2023-03-01T03:03:46;98719.69;;;-1.24
6550;BMP280;15142;48.888;9.134;2023-03-01T03:06:13;98715.44;;;-1.30
6550;BMP280;15142;48.888;9.134;2023-03-01T03:08:40;98725.25;;;-1.28
6550;BMP280;15142;48.888;9.134;2023-03-01T03:11:07;98723.59;;;-1.21
6550;BMP280;15142;48.888;9.134;2023-03-01T03:13:33;98714.44;;;-1.14
6550;BMP280;15142;48.888;9.134;2023-03-01T03:18:39;98714.09;;;-1.11
6550;BMP280;15142;48.888;9.134;2023-03-01T03:21:07;98714.25;;;-1.13
6550;BMP280;15142;48.888;9.134;2023-03-01T03:23:35;98711.41;;;-1.10
6550;BMP280;15142;48.888;9.134;2023-03-01T03:26:02;98701.28;;;-1.02
6550;BMP280;15142;48.888;9.134;2023-03-01T03:28:30;98701.97;;;-0.94
6550;BMP280;15142;48.888;9.134;2023-03-01T03:30:56;98713.53;;;-0.93
6550;BMP280;15142;48.888;9.134;2023-03-01T03:33:23;98703.78;;;-0.88
6550;BMP280;15142;48.888;9.134;2023-03-01T03:35:51;98705.97;;;-0.78
6550;BMP280;15142;48.888;9.134;2023-03-01T03:38:19;98697.50;;;-0.77
6550;BMP280;15142;48.888;9.134;2023-03-01T03:40:48;98703.03;;;-0.82
6550;BMP280;15142;48.888;9.134;2023-03-01T03:43:17;98699.00;;;-0.83
6550;BMP280;15142;48.888;9.134;2023-03-01T03:45:45;98696.50;;;-0.83
6550;BMP280;15142;48.888;9.134;2023-03-01T03:48:12;98694.75;;;-0.82
6550;BMP280;15142;48.888;9.134;2023-03-01T03:50:39;98695.41;;;-0.74
6550;BMP280;15142;48.888;9.134;2023-03-01T03:53:09;98697.19;;;-0.68
6550;BMP280;15142;48.888;9.134;2023-03-01T03:55:36;98692.66;;;-0.58
6550;BMP280;15142;48.888;9.134;2023-03-01T03:58:06;98694.00;;;-0.41
6550;BMP280;15142;48.888;9.134;2023-03-01T04:00:34;98688.50;;;-0.31
6550;BMP280;15142;48.888;9.134;2023-03-01T04:03:00;98683.97;;;-0.21
6550;BMP280;15142;48.888;9.134;2023-03-01T04:05:27;98682.09;;;-0.12
6550;BMP280;15142;48.888;9.134;2023-03-01T04:07:54;98682.75;;;-0.04
6550;BMP280;15142;48.888;9.134;2023-03-01T04:10:30;98682.00;;;0.02
6550;BMP280;15142;48.888;9.134;2023-03-01T04:12:57;98680.50;;;0.07
6550;BMP280;15142;48.888;9.134;2023-03-01T04:15:24;98676.25;;;0.08
6550;BMP280;15142;48.888;9.134;2023-03-01T04:17:52;98666.81;;;0.10
6550;BMP280;15142;48.888;9.134;2023-03-01T04:20:21;98667.81;;;0.15
6550;BMP280;15142;48.888;9.134;2023-03-01T04:22:51;98678.84;;;0.21
6550;BMP280;15142;48.888;9.134;2023-03-01T04:25:18;98669.22;;;0.24
6550;BMP280;15142;48.888;9.134;2023-03-01T04:27:46;98667.91;;;0.28
6550;BMP280;15142;48.888;9.134;2023-03-01T04:30:13;98675.44;;;0.28
6550;BMP280;15142;48.888;9.134;2023-03-01T04:32:40;98671.19;;;0.29
6550;BMP280;15142;48.888;9.134;2023-03-01T04:35:08;98666.75;;;0.31
6550;BMP280;15142;48.888;9.134;2023-03-01T04:37:34;98669.59;;;0.28
6550;BMP280;15142;48.888;9.134;2023-03-01T04:40:03;98679.44;;;0.23
6550;BMP280;15142;48.888;9.134;2023-03-01T04:42:38;98663.19;;;0.19
6550;BMP280;15142;48.888;9.134;2023-03-01T04:45:07;98672.13;;;0.28
6550;BMP280;15142;48.888;9.134;2023-03-01T04:47:39;98676.19;;;0.29
6550;BMP280;15142;48.888;9.134;2023-03-01T04:50:06;98675.22;;;0.30
6550;BMP280;15142;48.888;9.134;2023-03-01T04:52:34;98680.03;;;0.25
6550;BMP280;15142;48.888;9.134;2023-03-01T04:55:00;98674.63;;;0.28
6550;BMP280;15142;48.888;9.134;2023-03-01T04:57:27;98680.84;;;0.38
6550;BMP280;15142;48.888;9.134;2023-03-01T04:59:53;98678.84;;;0.21
6550;BMP280;15142;48.888;9.134;2023-03-01T05:02:22;98677.06;;;0.15
6550;BMP280;15142;48.888;9.134;2023-03-01T05:04:48;98674.56;;;0.15
6550;BMP280;15142;48.888;9.134;2023-03-01T05:07:15;98673.97;;;0.13
6550;BMP280;15142;48.888;9.134;2023-03-01T05:09:44;98677.06;;;0.15
6550;BMP280;15142;48.888;9.134;2023-03-01T05:12:11;98679.19;;;0.18
6550;BMP280;15142;48.888;9.134;2023-03-01T05:14:38;98673.41;;;0.17
6550;BMP280;15142;48.888;9.134;2023-03-01T05:17:04;98673.72;;;0.08
6550;BMP280;15142;48.888;9.134;2023-03-01T05:19:33;98665.81;;;-0.23
6550;BMP280;15142;48.888;9.134;2023-03-01T05:22:00;98670.78;;;-0.50
6550;BMP280;15142;48.888;9.134;2023-03-01T05:24:31;98671.38;;;-0.69
6550;BMP280;15142;48.888;9.134;2023-03-01T05:26:58;98659.75;;;-0.76
6550;BMP280;15142;48.888;9.134;2023-03-01T05:29:26;98661.44;;;-0.83
6550;BMP280;15142;48.888;9.134;2023-03-01T05:31:54;98662.03;;;-0.81
6550;BMP280;15142;48.888;9.134;2023-03-01T05:34:23;98661.66;;;-0.99
6550;BMP280;15142;48.888;9.134;2023-03-01T05:36:52;98653.66;;;-1.09
6550;BMP280;15142;48.888;9.134;2023-03-01T05:39:20;98673.25;;;-1.12
6550;BMP280;15142;48.888;9.134;2023-03-01T05:41:48;98674.75;;;-1.17
6550;BMP280;15142;48.888;9.134;2023-03-01T05:44:14;98669.91;;;-1.19
6550;BMP280;15142;48.888;9.134;2023-03-01T05:46:41;98666.38;;;-1.24
6550;BMP280;15142;48.888;9.134;2023-03-01T05:49:07;98673.13;;;-1.25
6550;BMP280;15142;48.888;9.134;2023-03-01T05:51:34;98667.34;;;-1.25
6550;BMP280;15142;48.888;9.134;2023-03-01T05:54:02;98666.91;;;-1.29
6550;BMP280;15142;48.888;9.134;2023-03-01T05:56:32;98675.78;;;-1.26
6550;BMP280;15142;48.888;9.134;2023-03-01T05:58:59;98678.50;;;-1.28
6550;BMP280;15142;48.888;9.134;2023-03-01T06:01:25;98668.88;;;-1.24
6550;BMP280;15142;48.888;9.134;2023-03-01T06:03:52;98673.66;;;-1.29
6550;BMP280;15142;48.888;9.134;2023-03-01T06:06:18;98665.97;;;-1.28
6550;BMP280;15142;48.888;9.134;2023-03-01T06:08:45;98654.91;;;-1.33
6550;BMP280;15142;48.888;9.134;2023-03-01T06:11:13;98663.53;;;-1.21
6550;BMP280;15142;48.888;9.134;2023-03-01T06:13:40;98663.59;;;-1.15
6550;BMP280;15142;48.888;9.134;2023-03-01T06:16:08;98666.53;;;-1.11
6550;BMP280;15142;48.888;9.134;2023-03-01T06:18:35;98674.44;;;-1.08
6550;BMP280;15142;48.888;9.134;2023-03-01T06:21:02;98661.75;;;-1.07
6550;BMP280;15142;48.888;9.134;2023-03-01T06:23:29;98669.53;;;-1.02
6550;BMP280;15142;48.888;9.134;2023-03-01T06:25:55;98676.66;;;-0.99
6550;BMP280;15142;48.888;9.134;2023-03-01T06:28:23;98654.97;;;-1.12
6550;BMP280;15142;48.888;9.134;2023-03-01T06:30:50;98665.47;;;-1.03
6550;BMP280;15142;48.888;9.134;2023-03-01T06:33:17;98662.31;;;-0.90
6550;BMP280;15142;48.888;9.134;2023-03-01T06:35:45;98670.47;;;-0.82
6550;BMP280;15142;48.888;9.134;2023-03-01T06:38:12;98664.59;;;-0.74
6550;BMP280;15142;48.888;9.134;2023-03-01T06:40:40;98659.75;;;-0.76
6550;BMP280;15142;48.888;9.134;2023-03-01T06:43:07;98663.28;;;-0.71
6550;BMP280;15142;48.888;9.134;2023-03-01T06:45:36;98662.38;;;-0.63
6550;BMP280;15142;48.888;9.134;2023-03-01T06:48:04;98665.00;;;-0.71
6550;BMP280;15142;48.888;9.134;2023-03-01T06:50:31;98656.34;;;-0.69
6550;BMP280;15142;48.888;9.134;2023-03-01T06:52:57;98666.06;;;-0.59
6550;BMP280;15142;48.888;9.134;2023-03-01T06:55:24;98659.50;;;-0.60
6550;BMP280;15142;48.888;9.134;2023-03-01T06:57:54;98670.00;;;-0.50
6550;BMP280;15142;48.888;9.134;2023-03-01T07:00:21;98659.84;;;-0.42
6550;BMP280;15142;48.888;9.134;2023-03-01T07:02:49;98655.44;;;-0.40
6550;BMP280;15142;48.888;9.134;2023-03-01T07:05:16;98664.84;;;-0.42
6550;BMP280;15142;48.888;9.134;2023-03-01T07:07:43;98648.69;;;-0.40
6550;BMP280;15142;48.888;9.134;2023-03-01T07:10:10;98657.81;;;-0.33
6550;BMP280;15142;48.888;9.134;2023-03-01T07:12:37;98659.38;;;-0.32
6550;BMP280;15142;48.888;9.134;2023-03-01T07:15:05;98661.28;;;-0.34
6550;BMP280;15142;48.888;9.134;2023-03-01T07:17:31;98654.34;;;-0.32
6550;BMP280;15142;48.888;9.134;2023-03-01T07:19:59;98655.56;;;-0.28
6550;BMP280;15142;48.888;9.134;2023-03-01T07:22:26;98669.16;;;-0.16
6550;BMP280;15142;48.888;9.134;2023-03-01T07:24:52;98661.44;;;-0.14
6550;BMP280;15142;48.888;9.134;2023-03-01T07:27:19;98649.59;;;0.00
6550;BMP280;15142;48.888;9.134;2023-03-01T07:29:45;98654.47;;;0.08
6550;BMP280;15142;48.888;9.134;2023-03-01T07:32:12;98649.34;;;0.23
6550;BMP280;15142;48.888;9.134;2023-03-01T07:34:38;98652.06;;;0.34
6550;BMP280;15142;48.888;9.134;2023-03-01T07:37:06;98652.78;;;0.22
6550;BMP280;15142;48.888;9.134;2023-03-01T07:39:33;98645.91;;;0.30
6550;BMP280;15142;48.888;9.134;2023-03-01T07:41:59;98640.16;;;0.49
6550;BMP280;15142;48.888;9.134;2023-03-01T07:44:26;98640.59;;;0.65
6550;BMP280;15142;48.888;9.134;2023-03-01T07:46:53;98640.59;;;0.59
6550;BMP280;15142;48.888;9.134;2023-03-01T07:49:21;98640.63;;;0.71
6550;BMP280;15142;48.888;9.134;2023-03-01T07:51:48;98650.31;;;0.81
6550;BMP280;15142;48.888;9.134;2023-03-01T07:54:16;98647.06;;;0.93
6550;BMP280;15142;48.888;9.134;2023-03-01T07:56:43;98634.66;;;0.79
6550;BMP280;15142;48.888;9.134;2023-03-01T07:59:10;98632.16;;;0.85
6550;BMP280;15142;48.888;9.134;2023-03-01T08:01:36;98633.34;;;0.96
6550;BMP280;15142;48.888;9.134;2023-03-01T08:04:03;98627.91;;;0.86
6550;BMP280;15142;48.888;9.134;2023-03-01T08:06:33;98628.31;;;0.96
6550;BMP280;15142;48.888;9.134;2023-03-01T08:09:00;98627.72;;;0.94
6550;BMP280;15142;48.888;9.134;2023-03-01T08:11:28;98624.44;;;0.87
6550;BMP280;15142;48.888;9.134;2023-03-01T08:13:55;98628.34;;;1.08
6550;BMP280;15142;48.888;9.134;2023-03-01T08:16:22;98622.94;;;1.11
6550;BMP280;15142;48.888;9.134;2023-03-01T08:18:49;98621.41;;;1.17
6550;BMP280;15142;48.888;9.134;2023-03-01T08:21:17;98625.84;;;1.34
6550;BMP280;15142;48.888;9.134;2023-03-01T08:23:44;98632.41;;;1.67
6550;BMP280;15142;48.888;9.134;2023-03-01T08:26:13;98621.38;;;1.55
6550;BMP280;15142;48.888;9.134;2023-03-01T08:28:42;98616.94;;;1.51
6550;BMP280;15142;48.888;9.134;2023-03-01T08:31:17;98625.03;;;1.78
6550;BMP280;15142;48.888;9.134;2023-03-01T08:33:44;98612.22;;;1.86
6550;BMP280;15142;48.888;9.134;2023-03-01T08:36:16;98613.16;;;2.05
6550;BMP280;15142;48.888;9.134;2023-03-01T08:38:43;98620.47;;;2.19
6550;BMP280;15142;48.888;9.134;2023-03-01T08:41:10;98622.38;;;2.30
6550;BMP280;15142;48.888;9.134;2023-03-01T08:43:36;98609.56;;;2.38
6550;BMP280;15142;48.888;9.134;2023-03-01T08:46:04;98604.63;;;2.55
6550;BMP280;15142;48.888;9.134;2023-03-01T08:48:31;98609.56;;;2.68
6550;BMP280;15142;48.888;9.134;2023-03-01T08:51:07;98611.25;;;2.80
6550;BMP280;15142;48.888;9.134;2023-03-01T08:53:33;98600.50;;;2.91
6550;BMP280;15142;48.888;9.134;2023-03-01T08:56:00;98600.56;;;2.85
6550;BMP280;15142;48.888;9.134;2023-03-01T08:58:27;98596.44;;;2.90
6550;BMP280;15142;48.888;9.134;2023-03-01T09:00:54;98589.03;;;2.95
6550;BMP280;15142;48.888;9.134;2023-03-01T09:03:23;98600.16;;;3.12
6550;BMP280;15142;48.888;9.134;2023-03-01T09:05:50;98586.28;;;3.27
6550;BMP280;15142;48.888;9.134;2023-03-01T09:08:16;98593.25;;;3.43
6550;BMP280;15142;48.888;9.134;2023-03-01T09:10:43;98595.69;;;3.38
6550;BMP280;15142;48.888;9.134;2023-03-01T09:13:10;98579.50;;;3.46
6550;BMP280;15142;48.888;9.134;2023-03-01T09:15:37;98580.38;;;3.51
6550;BMP280;15142;48.888;9.134;2023-03-01T09:18:04;98577.22;;;3.62
6550;BMP280;15142;48.888;9.134;2023-03-01T09:20:32;98573.63;;;3.51
6550;BMP280;15142;48.888;9.134;2023-03-01T09:22:58;98570.41;;;3.20
6550;BMP280;15142;48.888;9.134;2023-03-01T09:25:25;98567.00;;;3.33
6550;BMP280;15142;48.888;9.134;2023-03-01T09:27:52;98565.50;;;3.67
6550;BMP280;15142;48.888;9.134;2023-03-01T09:30:19;98564.66;;;3.73
6550;BMP280;15142;48.888;9.134;2023-03-01T09:32:46;98557.09;;;3.55
6550;BMP280;15142;48.888;9.134;2023-03-01T09:35:13;98552.66;;;3.51
6550;BMP280;15142;48.888;9.134;2023-03-01T09:37:41;98555.47;;;3.61
6550;BMP280;15142;48.888;9.134;2023-03-01T09:40:12;98551.16;;;3.79
6550;BMP280;15142;48.888;9.134;2023-03-01T09:42:47;98550.28;;;3.74
6550;BMP280;15142;48.888;9.134;2023-03-01T09:45:33;98549.53;;;3.84
6550;BMP280;15142;48.888;9.134;2023-03-01T09:48:01;98555.44;;;3.96
6550;BMP280;15142;48.888;9.134;2023-03-01T09:50:33;98549.69;;;4.18
6550;BMP280;15142;48.888;9.134;2023-03-01T09:53:05;98553.09;;;3.95
6550;BMP280;15142;48.888;9.134;2023-03-01T09:55:37;98547.22;;;4.30
6550;BMP280;15142;48.888;9.134;2023-03-01T09:58:31;98542.97;;;4.01
6550;BMP280;15142;48.888;9.134;2023-03-01T10:01:06;98539.25;;;3.86
6550;BMP280;15142;48.888;9.134;2023-03-01T10:03:40;98539.97;;;4.22
6550;BMP280;15142;48.888;9.134;2023-03-01T10:06:11;98540.25;;;4.66
6550;BMP280;15142;48.888;9.134;2023-03-01T10:08:42;98535.34;;;4.93
6550;BMP280;15142;48.888;9.134;2023-03-01T10:11:22;98525.88;;;5.00
6550;BMP280;15142;48.888;9.134;2023-03-01T10:13:54;98523.47;;;5.05
6550;BMP280;15142;48.888;9.134;2023-03-01T10:16:26;98524.00;;;5.18
6550;BMP280;15142;48.888;9.134;2023-03-01T10:18:58;98517.53;;;4.88
6550;BMP280;15142;48.888;9.134;2023-03-01T10:21:26;98511.91;;;4.98
6550;BMP280;15142;48.888;9.134;2023-03-01T10:24:10;98509.69;;;5.12
6550;BMP280;15142;48.888;9.134;2023-03-01T10:26:44;98509.25;;;5.15
6550;BMP280;15142;48.888;9.134;2023-03-01T10:29:14;98499.66;;;5.40
6550;BMP280;15142;48.888;9.134;2023-03-01T10:31:43;98488.91;;;5.61
6550;BMP280;15142;48.888;9.134;2023-03-01T10:34:13;98488.47;;;5.64
6550;BMP280;15142;48.888;9.134;2023-03-01T10:36:41;98482.72;;;6.12
6550;BMP280;15142;48.888;9.134;2023-03-01T10:39:16;98483.94;;;5.93
6550;BMP280;15142;48.888;9.134;2023-03-01T10:41:56;98481.88;;;6.39
6550;BMP280;15142;48.888;9.134;2023-03-01T10:44:42;98490.13;;;7.47
6550;BMP280;15142;48.888;9.134;2023-03-01T10:47:15;98482.66;;;8.19
6550;BMP280;15142;48.888;9.134;2023-03-01T10:49:57;98487.81;;;8.24
6550;BMP280;15142;48.888;9.134;2023-03-01T10:52:28;98484.84;;;8.41
6550;BMP280;15142;48.888;9.134;2023-03-01T10:54:58;98482.13;;;8.48
6550;BMP280;15142;48.888;9.134;2023-03-01T10:57:34;98470.53;;;8.26
6550;BMP280;15142;48.888;9.134;2023-03-01T11:00:18;98478.25;;;8.81
6550;BMP280;15142;48.888;9.134;2023-03-01T11:02:48;98460.94;;;8.37
6550;BMP280;15142;48.888;9.134;2023-03-01T11:05:21;98460.44;;;8.91
6550;BMP280;15142;48.888;9.134;2023-03-01T11:07:51;98462.59;;;9.19
6550;BMP280;15142;48.888;9.134;2023-03-01T11:10:22;98449.03;;;9.03
6550;BMP280;15142;48.888;9.134;2023-03-01T11:12:51;98431.81;;;9.35
6550;BMP280;15142;48.888;9.134;2023-03-01T11:15:24;98432.81;;;9.24
6550;BMP280;15142;48.888;9.134;2023-03-01T11:17:51;98425.47;;;9.62
6550;BMP280;15142;48.888;9.134;2023-03-01T11:20:24;98421.63;;;9.99
6550;BMP280;15142;48.888;9.134;2023-03-01T11:22:53;98419.09;;;10.09
6550;BMP280;15142;48.888;9.134;2023-03-01T11:25:25;98417.53;;;10.18
6550;BMP280;15142;48.888;9.134;2023-03-01T11:27:53;98424.72;;;9.61
6550;BMP280;15142;48.888;9.134;2023-03-01T11:30:24;98423.16;;;9.56
6550;BMP280;15142;48.888;9.134;2023-03-01T11:33:01;98412.91;;;9.01
6550;BMP280;15142;48.888;9.134;2023-03-01T11:35:29;98415.50;;;9.41
6550;BMP280;15142;48.888;9.134;2023-03-01T11:38:04;98411.91;;;10.25
6550;BMP280;15142;48.888;9.134;2023-03-01T11:40:41;98390.47;;;10.26
6550;BMP280;15142;48.888;9.134;2023-03-01T11:43:16;98393.31;;;10.77
6550;BMP280;15142;48.888;9.134;2023-03-01T11:46:12;98395.53;;;10.41
6550;BMP280;15142;48.888;9.134;2023-03-01T11:48:52;98386.19;;;9.83
6550;BMP280;15142;48.888;9.134;2023-03-01T11:51:29;98380.63;;;9.71
6550;BMP280;15142;48.888;9.134;2023-03-01T11:54:06;98390.88;;;10.53
6550;BMP280;15142;48.888;9.134;2023-03-01T11:56:38;98391.59;;;11.11
6550;BMP280;15142;48.888;9.134;2023-03-01T11:59:29;98376.06;;;10.55
6550;BMP280;15142;48.888;9.134;2023-03-01T12:02:19;98372.66;;;10.02
6550;BMP280;15142;48.888;9.134;2023-03-01T12:05:00;98354.03;;;10.06
6550;BMP280;15142;48.888;9.134;2023-03-01T12:07:38;98365.41;;;10.43
6550;BMP280;15142;48.888;9.134;2023-03-01T12:10:20;98346.53;;;11.25
6550;BMP280;15142;48.888;9.134;2023-03-01T12:12:58;98344.72;;;11.25
6550;BMP280;15142;48.888;9.134;2023-03-01T12:18:41;98338.97;;;10.19
6550;BMP280;15142;48.888;9.134;2023-03-01T12:21:18;98333.03;;;10.81
6550;BMP280;15142;48.888;9.134;2023-03-01T12:26:57;98316.88;;;11.24
6550;BMP280;15142;48.888;9.134;2023-03-01T12:29:32;98325.19;;;11.67
6550;BMP280;15142;48.888;9.134;2023-03-01T12:32:15;98313.41;;;12.12
6550;BMP280;15142;48.888;9.134;2023-03-01T12:34:54;98310.50;;;12.00
6550;BMP280;15142;48.888;9.134;2023-03-01T12:37:28;98308.81;;;13.00
6550;BMP280;15142;48.888;9.134;2023-03-01T12:40:12;98308.09;;;12.27
6550;BMP280;15142;48.888;9.134;2023-03-01T12:42:49;98298.13;;;11.84
6550;BMP280;15142;48.888;9.134;2023-03-01T12:45:44;98306.69;;;11.98
6550;BMP280;15142;48.888;9.134;2023-03-01T12:48:35;98302.75;;;10.98
6550;BMP280;15142;48.888;9.134;2023-03-01T12:51:06;98297.44;;;12.75
6550;BMP280;15142;48.888;9.134;2023-03-01T12:53:37;98289.53;;;11.75
6550;BMP280;15142;48.888;9.134;2023-03-01T12:56:07;98278.94;;;12.05
6550;BMP280;15142;48.888;9.134;2023-03-01T12:58:38;98269.59;;;12.37
6550;BMP280;15142;48.888;9.134;2023-03-01T13:01:16;98272.97;;;11.91
6550;BMP280;15142;48.888;9.134;2023-03-01T13:04:02;98265.03;;;12.34
6550;BMP280;15142;48.888;9.134;2023-03-01T13:06:37;98257.97;;;11.85
6550;BMP280;15142;48.888;9.134;2023-03-01T13:09:14;98255.94;;;12.59
6550;BMP280;15142;48.888;9.134;2023-03-01T13:11:43;98251.84;;;12.90
6550;BMP280;15142;48.888;9.134;2023-03-01T13:14:35;98261.22;;;12.81
6550;BMP280;15142;48.888;9.134;2023-03-01T13:17:04;98263.16;;;13.02
6550;BMP280;15142;48.888;9.134;2023-03-01T13:19:30;98261.16;;;12.86
6550;BMP280;15142;48.888;9.134;2023-03-01T13:21:58;98253.69;;;11.57
6550;BMP280;15142;48.888;9.134;2023-03-01T13:24:33;98249.94;;;10.61
6550;BMP280;15142;48.888;9.134;2023-03-01T13:27:23;98248.50;;;10.83
6550;BMP280;15142;48.888;9.134;2023-03-01T13:29:55;98251.75;;;11.91
6550;BMP280;15142;48.888;9.134;2023-03-01T13:32:27;98249.25;;;11.86
6550;BMP280;15142;48.888;9.134;2023-03-01T13:34:58;98251.63;;;11.82
6550;BMP280;15142;48.888;9.134;2023-03-01T13:37:34;98237.41;;;11.25
6550;BMP280;15142;48.888;9.134;2023-03-01T13:40:08;98232.59;;;10.63
6550;BMP280;15142;48.888;9.134;2023-03-01T13:42:52;98232.09;;;10.18
6550;BMP280;15142;48.888;9.134;2023-03-01T13:45:23;98240.09;;;10.02
6550;BMP280;15142;48.888;9.134;2023-03-01T13:47:57;98240.44;;;10.33
6550;BMP280;15142;48.888;9.134;2023-03-01T13:50:27;98232.88;;;10.14
6550;BMP280;15142;48.888;9.134;2023-03-01T13:52:56;98218.25;;;9.81
6550;BMP280;15142;48.888;9.134;2023-03-01T13:55:27;98226.38;;;9.93
6550;BMP280;15142;48.888;9.134;2023-03-01T13:57:58;98230.94;;;9.96
6550;BMP280;15142;48.888;9.134;2023-03-01T14:00:32;98225.19;;;9.56
6550;BMP280;15142;48.888;9.134;2023-03-01T14:03:02;98228.56;;;9.42
6550;BMP280;15142;48.888;9.134;2023-03-01T14:05:29;98227.09;;;9.11
6550;BMP280;15142;48.888;9.134;2023-03-01T14:07:55;98221.44;;;9.29
6550;BMP280;15142;48.888;9.134;2023-03-01T14:10:26;98211.78;;;8.96
6550;BMP280;15142;48.888;9.134;2023-03-01T14:13:02;98218.41;;;8.63
6550;BMP280;15142;48.888;9.134;2023-03-01T14:15:35;98214.59;;;9.00
6550;BMP280;15142;48.888;9.134;2023-03-01T14:18:10;98211.75;;;9.31
6550;BMP280;15142;48.888;9.134;2023-03-01T14:20:41;98212.78;;;9.25
6550;BMP280;15142;48.888;9.134;2023-03-01T14:23:13;98210.72;;;9.37
6550;BMP280;15142;48.888;9.134;2023-03-01T14:25:47;98218.09;;;9.53
6550;BMP280;15142;48.888;9.134;2023-03-01T14:28:16;98214.19;;;9.75
6550;BMP280;15142;48.888;9.134;2023-03-01T14:30:45;98218.09;;;9.63
6550;BMP280;15142;48.888;9.134;2023-03-01T14:33:22;98214.97;;;9.71
6550;BMP280;15142;48.888;9.134;2023-03-01T14:35:54;98227.28;;;9.29
6550;BMP280;15142;48.888;9.134;2023-03-01T14:38:21;98233.19;;;8.95
6550;BMP280;15142;48.888;9.134;2023-03-01T14:40:51;98227.59;;;8.74
6550;BMP280;15142;48.888;9.134;2023-03-01T14:43:23;98242.56;;;8.46
6550;BMP280;15142;48.888;9.134;2023-03-01T14:45:51;98232.56;;;8.25
6550;BMP280;15142;48.888;9.134;2023-03-01T14:48:19;98240.66;;;8.12
6550;BMP280;15142;48.888;9.134;2023-03-01T14:50:47;98237.13;;;8.23
6550;BMP280;15142;48.888;9.134;2023-03-01T14:53:16;98243.78;;;8.33